createdAt,value
2022-07-25T00:02:25.659Z,7.38
2022-07-25T00:04:54.243Z,7.78
2022-07-25T00:07:22.652Z,7.53
2022-07-25T00:09:50.897Z,8.60
2022-07-25T00:12:19.328Z,8.15
2022-07-25T00:14:48.001Z,8.50
2022-07-25T00:17:16.480Z,10.35
2022-07-25T00:19:48.398Z,8.55
2022-07-25T00:22:16.830Z,9.38
2022-07-25T00:24:45.284Z,8.68
2022-07-25T00:27:15.812Z,7.38
2022-07-25T00:29:44.101Z,8.52
2022-07-25T00:32:12.640Z,9.05
2022-07-25T00:34:40.925Z,8.02
2022-07-25T00:37:10.550Z,8.23
2022-07-25T00:39:38.856Z,9.63
2022-07-25T00:42:07.545Z,7.93
2022-07-25T00:44:35.977Z,8.43
2022-07-25T00:47:04.503Z,9.27
2022-07-25T00:49:34.003Z,9.93
2022-07-25T00:52:02.758Z,9.93
2022-07-25T00:54:32.534Z,7.63
2022-07-25T00:57:00.814Z,7.50
2022-07-25T00:59:30.807Z,8.98
2022-07-25T01:01:59.233Z,10.25
2022-07-25T01:04:32.148Z,8.23
2022-07-25T01:07:01.278Z,8.30
2022-07-25T01:09:29.855Z,9.93
2022-07-25T01:11:59.648Z,10.40
2022-07-25T01:14:28.018Z,8.13
2022-07-25T01:16:56.409Z,9.05
2022-07-25T01:19:24.651Z,7.47
2022-07-25T01:21:55.938Z,7.95
2022-07-25T01:24:24.216Z,8.07
2022-07-25T01:26:52.663Z,8.32
2022-07-25T01:29:20.937Z,9.25
2022-07-25T01:31:51.713Z,10.18
2022-07-25T01:34:19.992Z,8.75
2022-07-25T01:36:48.499Z,11.90
2022-07-25T01:39:18.242Z,8.65
2022-07-25T01:41:46.471Z,10.80
2022-07-25T01:44:15.050Z,8.15
2022-07-25T01:46:43.379Z,11.25
2022-07-25T01:49:11.825Z,8.23
2022-07-25T01:51:40.194Z,9.73
2022-07-25T01:54:10.304Z,9.07
2022-07-25T01:56:48.275Z,9.75
2022-07-25T01:59:16.987Z,9.90
2022-07-25T02:01:45.679Z,8.43
2022-07-25T02:04:14.163Z,7.53
2022-07-25T02:06:42.696Z,7.90
2022-07-25T02:09:11.024Z,10.38
2022-07-25T02:11:40.711Z,9.00
2022-07-25T02:14:09.467Z,10.90
2022-07-25T02:16:37.982Z,12.52
2022-07-25T02:19:09.991Z,10.95
2022-07-25T02:21:38.269Z,9.13
2022-07-25T02:24:07.770Z,8.48
2022-07-25T02:26:36.434Z,9.93
2022-07-25T02:29:06.193Z,9.13
2022-07-25T02:31:34.509Z,8.98
2022-07-25T02:34:04.495Z,9.15
2022-07-25T02:36:33.092Z,8.18
2022-07-25T02:39:01.359Z,8.82
2022-07-25T02:41:29.604Z,8.68
2022-07-25T02:43:57.851Z,11.52
2022-07-25T02:46:27.528Z,8.57
2022-07-25T02:48:55.913Z,8.38
2022-07-25T02:51:24.322Z,10.77
2022-07-25T02:53:57.650Z,10.20
2022-07-25T02:56:30.330Z,9.70
2022-07-25T02:59:00.618Z,9.15
2022-07-25T03:01:30.783Z,8.80
2022-07-25T03:03:59.217Z,14.02
2022-07-25T03:06:27.783Z,9.10
2022-07-25T03:08:56.075Z,9.55
2022-07-25T03:11:24.437Z,9.00
2022-07-25T03:13:55.055Z,9.02
2022-07-25T03:16:23.508Z,8.77
2022-07-25T03:18:53.311Z,8.18
2022-07-25T03:21:21.707Z,9.05
2022-07-25T03:23:52.696Z,9.57
2022-07-25T03:26:21.361Z,8.98
2022-07-25T03:28:49.643Z,8.60
2022-07-25T03:31:18.012Z,8.55
2022-07-25T03:33:46.307Z,8.35
2022-07-25T03:36:16.014Z,7.90
2022-07-25T03:38:44.396Z,10.10
2022-07-25T03:41:13.748Z,9.48
2022-07-25T03:43:42.008Z,10.68
2022-07-25T03:46:10.286Z,13.35
2022-07-25T03:48:38.893Z,12.88
2022-07-25T03:51:07.555Z,10.23
2022-07-25T03:53:57.498Z,10.90
2022-07-25T03:56:25.829Z,9.15
2022-07-25T03:58:54.251Z,9.73
2022-07-25T04:01:22.642Z,10.52
2022-07-25T04:03:51.035Z,8.35
2022-07-25T04:06:19.518Z,10.15
2022-07-25T04:08:51.293Z,8.73
2022-07-25T04:11:19.941Z,9.48
2022-07-25T04:13:48.368Z,9.25
2022-07-25T04:16:18.351Z,9.05
2022-07-25T04:18:51.658Z,10.00
2022-07-25T04:21:20.241Z,9.43
2022-07-25T04:23:50.104Z,11.35
2022-07-25T04:26:20.771Z,10.20
2022-07-25T04:28:49.767Z,10.63
2022-07-25T04:31:18.164Z,10.07
2022-07-25T04:33:46.738Z,9.80
2022-07-25T04:36:15.012Z,10.35
2022-07-25T04:38:43.337Z,8.07
2022-07-25T04:41:13.027Z,8.98
2022-07-25T04:43:46.301Z,5.93
2022-07-25T04:46:20.096Z,5.70
2022-07-25T04:48:48.851Z,6.40
2022-07-25T04:51:17.453Z,7.10
2022-07-25T04:53:45.874Z,5.82
2022-07-25T04:56:15.516Z,5.93
2022-07-25T04:58:44.125Z,5.28
2022-07-25T05:01:12.519Z,6.20
2022-07-25T05:03:40.767Z,3.95
2022-07-25T05:06:09.675Z,6.07
2022-07-25T05:08:37.951Z,4.90
2022-07-25T05:11:06.911Z,4.93
2022-07-25T05:13:36.613Z,8.05
2022-07-25T05:16:05.313Z,5.65
2022-07-25T05:18:35.224Z,6.93
2022-07-25T05:21:03.507Z,6.93
2022-07-25T05:23:31.844Z,8.43
2022-07-25T05:26:00.869Z,6.90
2022-07-25T05:28:29.165Z,6.82
2022-07-25T05:30:58.790Z,5.97
2022-07-25T05:33:27.087Z,7.25
2022-07-25T05:35:55.315Z,4.60
2022-07-25T05:38:23.646Z,4.43
2022-07-25T05:40:52.423Z,5.53
2022-07-25T05:43:20.771Z,4.32
2022-07-25T05:45:49.162Z,4.78
2022-07-25T05:48:18.850Z,6.03
2022-07-25T05:50:47.434Z,5.80
2022-07-25T05:53:15.725Z,4.80
2022-07-25T05:55:44.045Z,6.93
2022-07-25T05:58:12.308Z,6.28
2022-07-25T06:00:40.650Z,7.70
2022-07-25T06:03:09.046Z,6.75
2022-07-25T06:05:38.824Z,7.35
2022-07-25T06:08:07.421Z,5.43
2022-07-25T06:10:35.780Z,6.28
2022-07-25T06:13:05.761Z,6.07
2022-07-25T06:15:36.369Z,6.07
2022-07-25T06:18:04.864Z,7.25
2022-07-25T06:20:33.136Z,6.18
2022-07-25T06:23:03.888Z,5.07
2022-07-25T06:25:32.440Z,8.35
2022-07-25T06:28:01.170Z,5.25
2022-07-25T06:30:29.663Z,5.43
2022-07-25T06:32:58.004Z,6.47
2022-07-25T06:35:26.678Z,7.47
2022-07-25T06:37:55.006Z,6.88
2022-07-25T06:40:24.892Z,7.07
2022-07-25T06:42:53.252Z,8.15
2022-07-25T06:45:23.519Z,6.93
2022-07-25T06:47:53.325Z,6.32
2022-07-25T06:50:21.773Z,6.95
2022-07-25T06:52:50.513Z,6.07
2022-07-25T06:55:19.129Z,9.27
2022-07-25T06:57:48.834Z,7.28
2022-07-25T07:00:17.431Z,8.27
2022-07-25T07:02:53.546Z,7.85
2022-07-25T07:05:22.493Z,7.97
2022-07-25T07:07:51.194Z,9.38
2022-07-25T07:10:20.644Z,7.40
2022-07-25T07:12:51.329Z,8.02
2022-07-25T07:15:19.992Z,7.72
2022-07-25T07:17:48.280Z,10.75
2022-07-25T07:20:16.551Z,8.00
2022-07-25T07:22:46.063Z,5.72
2022-07-25T07:25:15.427Z,6.43
2022-07-25T07:27:44.388Z,8.10
2022-07-25T07:30:16.843Z,7.32
2022-07-25T07:32:48.495Z,5.47
2022-07-25T07:35:19.092Z,5.10
2022-07-25T07:37:48.147Z,11.13
2022-07-25T07:40:18.242Z,7.88
2022-07-25T07:42:47.801Z,6.60
2022-07-25T07:45:19.865Z,7.05
2022-07-25T07:47:49.096Z,7.95
2022-07-25T07:50:18.687Z,6.28
2022-07-25T07:52:47.477Z,4.60
2022-07-25T07:55:34.816Z,6.43
2022-07-25T07:58:03.471Z,6.07
2022-07-25T08:00:35.135Z,5.22
2022-07-25T08:03:04.993Z,6.47
2022-07-25T08:05:35.558Z,6.38
2022-07-25T08:08:04.209Z,4.47
2022-07-25T08:10:35.003Z,7.22
2022-07-25T08:13:04.854Z,6.28
2022-07-25T08:15:34.886Z,4.25
2022-07-25T08:18:04.798Z,4.78
2022-07-25T08:20:45.834Z,4.45
2022-07-25T08:23:14.654Z,4.47
2022-07-25T08:25:43.105Z,6.82
2022-07-25T08:28:11.731Z,5.70
2022-07-25T08:30:42.797Z,5.20
2022-07-25T08:33:13.438Z,5.18
2022-07-25T08:35:46.782Z,4.60
2022-07-25T08:38:15.079Z,4.95
2022-07-25T08:40:43.446Z,3.15
2022-07-25T08:43:13.804Z,4.47
2022-07-25T08:45:47.434Z,3.60
2022-07-25T08:48:18.864Z,3.20
2022-07-25T08:50:48.868Z,3.22
2022-07-25T08:53:35.598Z,4.28
2022-07-25T08:56:12.152Z,4.35
2022-07-25T08:58:44.318Z,4.90
2022-07-25T09:01:14.849Z,3.50
2022-07-25T09:03:43.825Z,3.97
2022-07-25T09:06:17.774Z,3.05
2022-07-25T09:08:56.586Z,5.25
2022-07-25T09:11:32.852Z,4.75
2022-07-25T09:14:02.898Z,2.78
2022-07-25T09:16:40.234Z,7.10
2022-07-25T09:19:11.449Z,5.35
2022-07-25T09:21:40.950Z,2.78
2022-07-25T09:24:16.008Z,6.15
2022-07-25T09:26:49.241Z,4.18
2022-07-25T09:29:22.952Z,4.90
2022-07-25T09:31:53.917Z,5.50
2022-07-25T09:34:34.828Z,4.05
2022-07-25T09:37:04.082Z,4.43
2022-07-25T09:39:46.440Z,4.78
2022-07-25T09:42:19.977Z,3.80
2022-07-25T09:45:00.676Z,3.83
2022-07-25T09:47:31.699Z,4.70
2022-07-25T09:50:00.383Z,3.63
2022-07-25T09:52:29.109Z,4.90
2022-07-25T09:54:57.557Z,3.47
2022-07-25T09:57:26.129Z,5.07
2022-07-25T09:59:56.096Z,4.90
2022-07-25T10:02:35.488Z,6.28
2022-07-25T10:05:13.871Z,5.50
2022-07-25T10:07:45.573Z,6.63
2022-07-25T10:10:25.154Z,3.58
2022-07-25T10:13:09.863Z,5.43
2022-07-25T10:15:48.031Z,6.57
2022-07-25T10:18:20.341Z,5.20
2022-07-25T10:20:51.074Z,3.80
2022-07-25T10:23:21.206Z,7.43
2022-07-25T10:26:01.527Z,6.35
2022-07-25T10:28:39.337Z,3.28
2022-07-25T10:31:17.603Z,4.63
2022-07-25T10:33:52.745Z,5.35
2022-07-25T10:36:22.894Z,4.43
2022-07-25T10:38:53.990Z,6.13
2022-07-25T10:41:26.429Z,5.70
2022-07-25T10:43:58.700Z,3.22
2022-07-25T10:46:30.851Z,4.57
2022-07-25T10:49:05.967Z,5.10
2022-07-25T10:51:39.620Z,3.20
2022-07-25T10:54:15.573Z,4.20
2022-07-25T10:56:57.155Z,5.93
2022-07-25T10:59:30.073Z,4.00
2022-07-25T11:01:58.689Z,6.28
2022-07-25T11:04:28.866Z,2.58
2022-07-25T11:06:57.436Z,4.25
2022-07-25T11:09:29.517Z,5.25
2022-07-25T11:11:59.111Z,6.97
2022-07-25T11:14:32.912Z,2.13
2022-07-25T11:17:13.997Z,4.22
2022-07-25T11:19:45.229Z,5.05
2022-07-25T11:22:13.978Z,5.07
2022-07-25T11:24:44.146Z,5.18
2022-07-25T11:27:15.362Z,5.50
2022-07-25T11:29:43.912Z,3.67
2022-07-25T11:32:13.368Z,4.35
2022-07-25T11:34:45.091Z,6.45
2022-07-25T11:37:14.617Z,3.28
2022-07-25T11:39:45.095Z,3.63
2022-07-25T11:42:17.290Z,4.35
2022-07-25T11:44:48.322Z,4.55
2022-07-25T11:47:28.730Z,2.75
2022-07-25T11:50:00.170Z,3.05
2022-07-25T11:52:31.484Z,5.22
2022-07-25T11:55:01.439Z,5.00
2022-07-25T11:57:31.709Z,6.38
2022-07-25T12:00:01.367Z,4.47
2022-07-25T12:02:37.939Z,3.80
2022-07-25T12:05:10.877Z,5.57
2022-07-25T12:07:40.860Z,3.88
2022-07-25T12:10:12.494Z,4.38
2022-07-25T12:12:49.817Z,4.97
2022-07-25T12:15:21.021Z,4.20
2022-07-25T12:17:49.717Z,2.85
2022-07-25T12:20:21.691Z,3.67
2022-07-25T12:22:51.361Z,4.20
2022-07-25T12:25:20.252Z,3.03
2022-07-25T12:27:49.289Z,4.63
2022-07-25T12:30:18.399Z,4.45
2022-07-25T12:32:46.691Z,7.68
2022-07-25T12:35:15.475Z,4.18
2022-07-25T12:37:45.657Z,4.22
2022-07-25T12:40:15.286Z,4.43
2022-07-25T12:42:44.478Z,4.53
2022-07-25T12:45:13.902Z,4.20
2022-07-25T12:47:43.507Z,5.85
2022-07-25T12:50:11.857Z,3.25
2022-07-25T12:52:40.444Z,4.63
2022-07-25T12:55:12.872Z,1.95
2022-07-25T12:57:41.350Z,2.95
2022-07-25T13:00:13.631Z,4.60
2022-07-25T13:02:42.448Z,2.63
2022-07-25T13:05:11.632Z,4.13
2022-07-25T13:07:39.985Z,5.10
2022-07-25T13:10:10.852Z,1.73
2022-07-25T13:12:39.369Z,2.47
2022-07-25T13:15:08.747Z,7.13
2022-07-25T13:17:37.344Z,8.02
2022-07-25T13:20:06.658Z,3.28
2022-07-25T13:22:35.503Z,4.65
2022-07-25T13:25:04.220Z,3.78
2022-07-25T13:27:33.903Z,2.75
2022-07-25T13:30:02.276Z,2.97
2022-07-25T13:32:31.846Z,3.92
2022-07-25T13:35:00.173Z,2.33
2022-07-25T13:37:29.503Z,2.08
2022-07-25T13:39:57.870Z,4.28
2022-07-25T13:42:26.430Z,2.50
2022-07-25T13:44:56.150Z,3.10
2022-07-25T13:47:28.391Z,2.97
2022-07-25T13:49:58.691Z,3.47
2022-07-25T13:52:26.985Z,2.75
2022-07-25T13:54:55.370Z,1.73
2022-07-25T13:57:23.723Z,4.43
2022-07-25T13:59:52.248Z,4.38
2022-07-25T14:02:22.203Z,2.40
2022-07-25T14:04:50.582Z,2.35
2022-07-25T14:07:18.967Z,1.27
2022-07-25T14:09:47.305Z,2.75
2022-07-25T14:12:16.176Z,2.15
2022-07-25T14:14:44.641Z,2.05
2022-07-25T14:17:13.417Z,3.92
2022-07-25T14:19:43.158Z,1.90
2022-07-25T14:22:11.450Z,4.13
2022-07-25T14:24:39.903Z,2.72
2022-07-25T14:27:08.222Z,1.73
2022-07-25T14:29:38.092Z,2.58
2022-07-25T14:32:07.940Z,1.65
2022-07-25T14:34:37.970Z,2.05
2022-07-25T14:37:08.840Z,4.53
2022-07-25T14:39:37.608Z,2.30
2022-07-25T14:42:06.108Z,3.60
2022-07-25T14:44:34.487Z,2.50
2022-07-25T14:47:11.868Z,1.48
2022-07-25T14:49:41.556Z,1.55
2022-07-25T14:52:12.169Z,1.45
2022-07-25T14:54:41.188Z,0.90
2022-07-25T14:57:10.191Z,2.38
2022-07-25T14:59:38.544Z,2.13
2022-07-25T15:02:06.838Z,1.20
2022-07-25T15:04:35.372Z,1.67
2022-07-25T15:07:03.997Z,2.00
2022-07-25T15:09:34.062Z,2.97
2022-07-25T15:12:02.387Z,1.35
2022-07-25T15:14:30.885Z,4.22
2022-07-25T15:16:59.292Z,5.22
2022-07-25T15:19:27.970Z,2.13
2022-07-25T15:21:56.615Z,1.98
2022-07-25T15:24:29.086Z,3.03
2022-07-25T15:26:59.238Z,3.10
2022-07-25T15:29:28.718Z,3.10
2022-07-25T15:31:57.116Z,3.42
2022-07-25T15:34:25.775Z,3.13
2022-07-25T15:36:56.197Z,3.28
2022-07-25T15:39:24.551Z,3.65
2022-07-25T15:41:52.814Z,2.15
2022-07-25T15:44:22.578Z,2.25
2022-07-25T15:46:50.975Z,3.33
2022-07-25T15:49:19.354Z,2.78
2022-07-25T15:51:47.837Z,2.88
2022-07-25T15:54:16.560Z,2.97
2022-07-25T15:56:45.021Z,2.03
2022-07-25T15:59:14.329Z,1.65
2022-07-25T16:01:44.151Z,2.80
2022-07-25T16:04:13.022Z,1.83
2022-07-25T16:06:41.733Z,1.65
2022-07-25T16:09:12.468Z,3.38
2022-07-25T16:11:40.872Z,1.08
2022-07-25T16:14:10.029Z,3.15
2022-07-25T16:16:39.730Z,1.38
2022-07-25T16:19:10.009Z,1.45
2022-07-25T16:21:39.912Z,3.35
2022-07-25T16:24:09.543Z,2.10
2022-07-25T16:26:38.331Z,2.22
2022-07-25T16:29:07.257Z,3.22
2022-07-25T16:31:36.024Z,1.00
2022-07-25T16:34:04.466Z,1.65
2022-07-25T16:36:36.560Z,1.90
2022-07-25T16:39:05.719Z,2.05
2022-07-25T16:41:34.480Z,3.15
2022-07-25T16:44:02.873Z,2.22
2022-07-25T16:46:31.279Z,2.10
2022-07-25T16:48:59.909Z,4.05
2022-07-25T16:51:28.337Z,2.05
2022-07-25T16:53:58.015Z,3.50
2022-07-25T16:56:26.797Z,3.17
2022-07-25T16:58:55.179Z,3.08
2022-07-25T17:01:24.878Z,2.50
2022-07-25T17:03:53.404Z,2.83
2022-07-25T17:06:21.735Z,2.60
2022-07-25T17:08:50.167Z,3.63
2022-07-25T17:11:19.928Z,3.55
2022-07-25T17:13:48.255Z,1.98
2022-07-25T17:16:16.782Z,1.88
2022-07-25T17:18:45.189Z,2.88
2022-07-25T17:21:15.307Z,2.80
2022-07-25T17:23:43.892Z,2.47
2022-07-25T17:26:12.391Z,1.88
2022-07-25T17:28:42.330Z,1.80
2022-07-25T17:31:10.742Z,3.58
2022-07-25T17:33:39.111Z,2.42
2022-07-25T17:36:07.852Z,3.88
2022-07-25T17:38:36.359Z,1.65
2022-07-25T17:41:05.455Z,2.40
2022-07-25T17:43:33.836Z,3.80
2022-07-25T17:46:03.681Z,2.63
2022-07-25T17:48:32.144Z,1.63
2022-07-25T17:51:00.531Z,2.17
2022-07-25T17:53:28.909Z,2.08
2022-07-25T17:55:57.223Z,1.80
2022-07-25T17:58:25.611Z,3.17
2022-07-25T18:00:56.925Z,2.40
2022-07-25T18:03:30.575Z,2.42
2022-07-25T18:05:58.939Z,3.08
2022-07-25T18:08:30.503Z,3.58
2022-07-25T18:10:58.861Z,2.72
2022-07-25T18:13:27.160Z,3.88
2022-07-25T18:15:55.815Z,2.78
2022-07-25T18:18:24.085Z,2.45
2022-07-25T18:20:54.128Z,4.78
2022-07-25T18:23:23.797Z,1.35
2022-07-25T18:25:52.471Z,3.10
2022-07-25T18:28:21.888Z,2.30
2022-07-25T18:30:50.459Z,2.88
2022-07-25T18:33:19.239Z,4.13
2022-07-25T18:35:47.600Z,1.02
2022-07-25T18:38:17.383Z,3.17
2022-07-25T18:40:45.739Z,1.70
2022-07-25T18:43:14.190Z,2.95
2022-07-25T18:45:46.387Z,2.08
2022-07-25T18:48:14.785Z,2.38
2022-07-25T18:50:43.097Z,2.08
2022-07-25T18:53:11.590Z,3.50
2022-07-25T18:55:42.569Z,3.13
2022-07-25T18:58:15.747Z,2.50
2022-07-25T19:00:44.437Z,1.00
2022-07-25T19:03:12.876Z,2.55
2022-07-25T19:05:41.177Z,3.33
2022-07-25T19:08:09.744Z,3.72
2022-07-25T19:10:38.806Z,1.85
2022-07-25T19:13:08.763Z,2.50
2022-07-25T19:15:37.218Z,3.47
2022-07-25T19:18:05.958Z,3.50
2022-07-25T19:20:34.237Z,2.75
2022-07-25T19:23:02.718Z,3.83
2022-07-25T19:25:33.715Z,2.05
2022-07-25T19:28:02.317Z,5.10
2022-07-25T19:30:32.091Z,1.92
2022-07-25T19:33:00.479Z,2.63
2022-07-25T19:35:28.933Z,2.50
2022-07-25T19:37:57.333Z,4.40
2022-07-25T19:40:25.762Z,2.67
2022-07-25T19:42:54.140Z,2.53
2022-07-25T19:45:22.538Z,4.03
2022-07-25T19:47:52.212Z,2.85
2022-07-25T19:50:20.668Z,3.42
2022-07-25T19:52:49.281Z,4.53
2022-07-25T19:55:17.579Z,3.47
2022-07-25T19:57:46.140Z,4.13
2022-07-25T20:00:15.204Z,2.97
2022-07-25T20:02:43.658Z,3.08
2022-07-25T20:05:13.891Z,4.60
2022-07-25T20:07:42.312Z,2.80
2022-07-25T20:10:13.896Z,4.63
2022-07-25T20:12:46.467Z,5.22
2022-07-25T20:15:15.297Z,4.30
2022-07-25T20:17:45.803Z,2.97
2022-07-25T20:20:15.688Z,2.30
2022-07-25T20:22:44.543Z,2.25
2022-07-25T20:25:16.443Z,2.95
2022-07-25T20:27:44.887Z,5.95
2022-07-25T20:30:14.273Z,3.20
2022-07-25T20:32:42.787Z,3.83
2022-07-25T20:35:11.476Z,3.53
2022-07-25T20:37:41.868Z,4.35
2022-07-25T20:40:12.110Z,3.78
2022-07-25T20:42:40.555Z,3.92
2022-07-25T20:45:10.055Z,3.83
2022-07-25T20:47:38.949Z,4.03
2022-07-25T20:50:09.488Z,3.58
2022-07-25T20:52:40.697Z,3.45
2022-07-25T20:55:09.773Z,4.57
2022-07-25T20:57:38.212Z,4.50
2022-07-25T21:00:07.383Z,4.97
2022-07-25T21:02:35.769Z,3.88
2022-07-25T21:05:04.368Z,4.75
2022-07-25T21:07:32.783Z,3.17
2022-07-25T21:10:02.473Z,2.88
2022-07-25T21:12:32.757Z,3.45
2022-07-25T21:15:02.186Z,2.00
2022-07-25T21:17:30.612Z,2.92
2022-07-25T21:19:58.976Z,5.07
2022-07-25T21:22:27.556Z,4.15
2022-07-25T21:24:55.845Z,4.97
2022-07-25T21:27:25.857Z,2.95
2022-07-25T21:29:54.202Z,6.68
2022-07-25T21:32:23.295Z,2.90
2022-07-25T21:34:51.940Z,5.50
2022-07-25T21:37:20.284Z,3.33
2022-07-25T21:39:48.639Z,3.40
2022-07-25T21:42:17.034Z,4.97
2022-07-25T21:44:46.792Z,5.68
2022-07-25T21:47:15.315Z,11.55
2022-07-25T21:50:01.321Z,2.85
2022-07-25T21:52:34.840Z,5.47
2022-07-25T21:55:04.766Z,4.40
2022-07-25T21:57:33.512Z,4.55
2022-07-25T22:00:03.408Z,2.65
2022-07-25T22:02:43.739Z,3.80
2022-07-25T22:05:12.283Z,4.90
2022-07-25T22:07:40.997Z,4.50
2022-07-25T22:10:11.146Z,6.72
2022-07-25T22:12:40.726Z,5.18
2022-07-25T22:15:12.619Z,5.03
2022-07-25T22:17:49.288Z,4.60
2022-07-25T22:20:18.622Z,4.03
2022-07-25T22:22:47.387Z,8.32
2022-07-25T22:25:15.930Z,4.68
2022-07-25T22:27:44.324Z,4.90
2022-07-25T22:30:19.241Z,7.80
2022-07-25T22:32:48.474Z,4.57
2022-07-25T22:35:19.711Z,5.97
2022-07-25T22:37:48.094Z,5.63
2022-07-25T22:40:16.674Z,9.27
2022-07-25T22:42:45.274Z,5.15
2022-07-25T22:45:15.236Z,5.97
2022-07-25T22:47:46.398Z,10.07
2022-07-25T22:50:14.759Z,5.80
2022-07-25T22:52:43.237Z,6.07
2022-07-25T22:55:11.971Z,9.23
2022-07-25T22:57:40.457Z,3.83
2022-07-25T23:00:11.104Z,5.07
2022-07-25T23:02:41.415Z,5.07
2022-07-25T23:05:10.908Z,3.15
2022-07-25T23:07:39.475Z,8.55
2022-07-25T23:10:08.852Z,6.78
2022-07-25T23:12:37.348Z,6.32
2022-07-25T23:15:06.657Z,4.65
2022-07-25T23:17:35.313Z,6.03
2022-07-25T23:20:06.864Z,7.50
2022-07-25T23:22:35.220Z,5.57
2022-07-25T23:25:03.867Z,13.35
2022-07-25T23:27:33.937Z,6.95
2022-07-25T23:30:04.577Z,8.38
2022-07-25T23:32:33.058Z,7.25
2022-07-25T23:35:01.434Z,4.85
2022-07-25T23:37:32.001Z,7.47
2022-07-25T23:40:00.281Z,9.65
2022-07-25T23:42:31.027Z,9.35
2022-07-25T23:44:59.854Z,10.50
2022-07-25T23:47:39.248Z,7.90
2022-07-25T23:50:08.341Z,8.00
2022-07-25T23:52:38.073Z,6.22
2022-07-25T23:55:07.030Z,7.40
2022-07-25T23:57:35.616Z,7.30
